createdAt,value
2023-02-11T00:02:11.195Z,1.58
2023-02-11T00:07:12.745Z,1.83
2023-02-11T00:12:15.390Z,1.75
2023-02-11T00:17:16.992Z,1.05
2023-02-11T00:22:18.832Z,1.50
2023-02-11T00:27:20.336Z,0.65
2023-02-11T00:32:21.782Z,1.08
2023-02-11T00:37:24.418Z,1.63
2023-02-11T00:42:25.885Z,0.57
2023-02-11T00:47:27.587Z,0.98
2023-02-11T00:52:29.826Z,0.68
2023-02-11T00:57:31.281Z,0.43
2023-02-11T01:02:33.446Z,1.15
2023-02-11T01:07:34.922Z,0.55
2023-02-11T01:12:36.714Z,0.22
2023-02-11T01:17:38.248Z,0.38
2023-02-11T01:22:39.973Z,0.43
2023-02-11T01:27:41.481Z,0.40
2023-02-11T01:32:42.967Z,0.20
2023-02-11T01:37:44.504Z,1.30
2023-02-11T01:42:48.823Z,0.95
2023-02-11T01:47:51.474Z,0.70
2023-02-11T01:52:53.491Z,0.20
2023-02-11T01:58:00.089Z,0.40
2023-02-11T02:03:20.247Z,1.10
2023-02-11T02:08:25.251Z,0.95
2023-02-11T02:13:32.228Z,0.35
2023-02-11T02:18:36.705Z,0.82
2023-02-11T02:24:15.050Z,0.40
2023-02-11T02:29:54.440Z,0.45
2023-02-11T02:35:13.709Z,0.22
2023-02-11T02:40:21.245Z,0.68
2023-02-11T02:45:22.776Z,0.25
2023-02-11T02:50:30.377Z,0.20
2023-02-11T02:55:53.236Z,0.25
2023-02-11T03:01:03.587Z,0.80
2023-02-11T03:06:10.436Z,0.43
2023-02-11T03:11:15.404Z,0.00
2023-02-11T03:16:24.788Z,0.08
2023-02-11T03:21:27.865Z,0.20
2023-02-11T03:26:44.111Z,0.17
2023-02-11T03:32:11.245Z,0.73
2023-02-11T03:37:36.509Z,0.32
2023-02-11T03:42:46.091Z,0.77
2023-02-11T03:47:54.872Z,0.95
2023-02-11T03:52:58.686Z,0.13
2023-02-11T03:58:00.218Z,0.57
2023-02-11T04:03:01.749Z,0.82
2023-02-11T04:08:03.455Z,0.52
2023-02-11T04:13:04.902Z,0.10
2023-02-11T04:18:06.736Z,0.47
2023-02-11T04:23:08.253Z,0.82
2023-02-11T04:28:09.766Z,0.73
2023-02-11T04:33:11.305Z,1.00
2023-02-11T04:38:13.304Z,0.55
2023-02-11T04:43:14.760Z,0.98
2023-02-11T04:48:16.217Z,0.93
2023-02-11T04:53:17.671Z,0.57
2023-02-11T04:58:19.890Z,0.10
2023-02-11T05:03:21.366Z,0.75
2023-02-11T05:08:22.844Z,0.00
2023-02-11T05:13:24.549Z,0.52
2023-02-11T05:18:26.007Z,1.50
2023-02-11T05:23:27.448Z,0.63
2023-02-11T05:28:29.561Z,0.35
2023-02-11T05:33:31.178Z,0.32
2023-02-11T05:38:33.398Z,0.68
2023-02-11T05:43:35.548Z,0.50
2023-02-11T05:48:37.043Z,0.55
2023-02-11T05:53:38.512Z,1.23
2023-02-11T05:58:40.585Z,1.38
2023-02-11T06:03:42.117Z,0.60
2023-02-11T06:08:43.577Z,1.08
2023-02-11T06:13:45.019Z,0.75
2023-02-11T06:18:46.483Z,1.02
2023-02-11T06:23:47.968Z,1.95
2023-02-11T06:28:49.591Z,0.60
2023-02-11T06:33:51.063Z,0.68
2023-02-11T06:38:52.615Z,1.40
2023-02-11T06:43:54.476Z,0.82
2023-02-11T06:48:56.014Z,1.13
2023-02-11T06:53:57.471Z,0.80
2023-02-11T06:58:59.063Z,0.60
2023-02-11T07:04:00.632Z,1.23
2023-02-11T07:09:02.308Z,0.55
2023-02-11T07:14:08.282Z,1.02
2023-02-11T07:19:09.771Z,0.55
2023-02-11T07:24:11.637Z,0.73
2023-02-11T07:29:13.258Z,1.35
2023-02-11T07:34:14.776Z,1.10
2023-02-11T07:39:16.392Z,1.35
2023-02-11T07:44:18.660Z,0.82
2023-02-11T07:49:20.157Z,0.93
2023-02-11T07:54:22.014Z,1.77
2023-02-11T07:59:24.865Z,1.60
2023-02-11T08:04:26.376Z,1.67
2023-02-11T08:09:27.920Z,1.13
2023-02-11T08:14:29.394Z,0.95
2023-02-11T08:19:32.912Z,1.52
2023-02-11T08:24:35.564Z,1.30
2023-02-11T08:29:37.068Z,1.77
2023-02-11T08:34:39.574Z,1.35
2023-02-11T08:39:41.043Z,1.85
2023-02-11T08:44:43.029Z,2.08
2023-02-11T08:49:44.495Z,2.10
2023-02-11T08:54:45.953Z,2.13
2023-02-11T08:59:47.411Z,2.17
2023-02-11T09:04:48.884Z,2.17
2023-02-11T09:09:50.399Z,1.17
2023-02-11T09:14:51.849Z,1.10
2023-02-11T09:19:53.467Z,2.17
2023-02-11T09:24:57.476Z,2.20
2023-02-11T09:29:58.927Z,1.33
2023-02-11T09:35:00.519Z,2.25
2023-02-11T09:40:02.116Z,2.90
2023-02-11T09:45:10.573Z,1.42
2023-02-11T09:50:16.166Z,1.48
2023-02-11T09:55:30.469Z,1.20
2023-02-11T10:00:40.221Z,0.85
2023-02-11T10:05:41.743Z,1.17
2023-02-11T10:10:52.626Z,1.80
2023-02-11T10:16:17.983Z,1.90
2023-02-11T10:21:46.479Z,1.80
2023-02-11T10:26:48.962Z,2.55
2023-02-11T10:31:51.494Z,2.42
2023-02-11T10:36:53.018Z,2.08
2023-02-11T10:41:59.205Z,2.63
2023-02-11T10:47:07.275Z,1.58
2023-02-11T10:52:20.546Z,2.55
2023-02-11T10:57:22.664Z,1.58
2023-02-11T11:02:32.086Z,3.17
2023-02-11T11:07:34.368Z,1.80
2023-02-11T11:12:44.843Z,2.38
2023-02-11T11:17:46.539Z,2.42
2023-02-11T11:22:50.462Z,1.52
2023-02-11T11:27:54.269Z,2.88
2023-02-11T11:32:56.547Z,2.60
2023-02-11T11:38:03.843Z,2.42
2023-02-11T11:43:14.213Z,2.38
2023-02-11T11:48:25.292Z,1.63
2023-02-11T11:53:48.259Z,3.00
2023-02-11T11:58:50.707Z,1.33
2023-02-11T12:04:10.466Z,1.83
2023-02-11T12:09:49.986Z,1.35
2023-02-11T12:15:27.049Z,1.55
2023-02-11T12:21:05.817Z,1.33
2023-02-11T12:26:18.302Z,2.00
2023-02-11T12:31:44.730Z,2.33
2023-02-11T12:37:07.547Z,1.25
2023-02-11T12:42:57.612Z,1.60
2023-02-11T12:48:29.851Z,2.53
2023-02-11T12:54:14.113Z,1.65
2023-02-11T12:59:29.652Z,1.15
2023-02-11T13:04:40.170Z,0.95
2023-02-11T13:09:48.646Z,0.93
2023-02-11T13:14:54.367Z,0.75
2023-02-11T13:20:21.050Z,1.08
2023-02-11T13:25:44.298Z,1.55
2023-02-11T13:30:52.379Z,1.15
2023-02-11T13:35:57.090Z,1.55
2023-02-11T13:41:01.287Z,1.52
2023-02-11T13:46:05.466Z,1.33
2023-02-11T13:51:12.315Z,1.30
2023-02-11T13:56:28.077Z,1.10
2023-02-11T14:01:41.951Z,1.25
2023-02-11T14:08:00.411Z,1.13
2023-02-11T14:13:23.073Z,0.90
2023-02-11T14:18:52.439Z,0.65
2023-02-11T14:24:14.335Z,1.42
2023-02-11T14:29:53.107Z,1.20
2023-02-11T14:35:20.858Z,0.80
2023-02-11T14:40:59.118Z,0.90
2023-02-11T14:46:02.916Z,1.00
2023-02-11T14:51:15.992Z,0.85
2023-02-11T14:56:31.031Z,1.15
2023-02-11T15:01:37.625Z,1.40
2023-02-11T15:06:42.459Z,0.77
2023-02-11T15:11:46.790Z,1.45
2023-02-11T15:16:48.701Z,0.88
2023-02-11T15:21:51.652Z,0.88
2023-02-11T15:27:01.408Z,1.45
2023-02-11T15:32:23.910Z,1.58
2023-02-11T15:37:30.103Z,0.50
2023-02-11T15:42:43.856Z,0.98
2023-02-11T15:47:51.424Z,2.17
2023-02-11T15:52:55.045Z,1.38
2023-02-11T15:58:01.641Z,0.63
2023-02-11T16:03:04.488Z,0.80
2023-02-11T16:08:29.708Z,1.10
2023-02-11T16:13:33.631Z,0.63
2023-02-11T16:18:40.093Z,0.93
2023-02-11T16:23:44.990Z,0.57
2023-02-11T16:28:46.966Z,1.08
2023-02-11T16:33:48.417Z,0.50
2023-02-11T16:38:49.872Z,0.52
2023-02-11T16:43:51.409Z,0.57
2023-02-11T16:48:55.209Z,0.25
2023-02-11T16:53:56.696Z,0.75
2023-02-11T16:58:58.156Z,1.08
2023-02-11T17:03:59.986Z,1.58
2023-02-11T17:09:01.631Z,1.27
2023-02-11T17:14:03.115Z,0.68
2023-02-11T17:19:04.728Z,0.65
2023-02-11T17:24:06.393Z,0.65
2023-02-11T17:29:10.236Z,0.82
2023-02-11T17:34:12.044Z,0.65
2023-02-11T17:39:13.691Z,0.55
2023-02-11T17:44:16.351Z,0.75
2023-02-11T17:49:17.957Z,1.00
2023-02-11T17:54:20.097Z,0.77
2023-02-11T17:59:21.631Z,0.75
2023-02-11T18:04:23.228Z,1.33
2023-02-11T18:09:25.919Z,0.30
2023-02-11T18:14:27.418Z,0.90
2023-02-11T18:19:30.578Z,0.70
2023-02-11T18:24:32.102Z,0.43
2023-02-11T18:29:33.709Z,1.52
2023-02-11T18:34:35.175Z,0.50
2023-02-11T18:39:36.934Z,1.25
2023-02-11T18:44:38.391Z,1.30
2023-02-11T18:49:39.852Z,2.35
2023-02-11T18:54:41.327Z,1.85
2023-02-11T18:59:42.956Z,1.25
2023-02-11T19:04:44.541Z,0.50
2023-02-11T19:09:45.993Z,1.00
2023-02-11T19:14:47.447Z,0.95
2023-02-11T19:19:49.021Z,1.48
2023-02-11T19:24:50.475Z,0.88
2023-02-11T19:29:52.001Z,1.73
2023-02-11T19:34:53.640Z,0.95
2023-02-11T19:39:55.189Z,0.82
2023-02-11T19:44:57.275Z,0.47
2023-02-11T19:49:58.926Z,1.75
2023-02-11T19:55:00.820Z,1.85
2023-02-11T20:00:02.283Z,1.08
2023-02-11T20:05:13.218Z,0.98
2023-02-11T20:10:14.679Z,0.68
2023-02-11T20:15:16.157Z,1.20
2023-02-11T20:20:18.464Z,0.93
2023-02-11T20:25:19.988Z,1.02
2023-02-11T20:30:21.746Z,0.40
2023-02-11T20:35:23.230Z,0.43
2023-02-11T20:40:24.904Z,0.55
2023-02-11T20:45:26.362Z,1.10
2023-02-11T20:50:27.820Z,0.50
2023-02-11T20:55:29.787Z,0.52
2023-02-11T21:00:31.322Z,0.45
2023-02-11T21:05:32.802Z,0.98
2023-02-11T21:10:34.252Z,1.42
2023-02-11T21:15:35.721Z,0.47
2023-02-11T21:20:37.257Z,0.73
2023-02-11T21:25:38.737Z,0.90
2023-02-11T21:30:41.310Z,0.35
2023-02-11T21:35:42.868Z,1.13
2023-02-11T21:40:44.347Z,0.55
2023-02-11T21:45:47.821Z,0.52
2023-02-11T21:50:49.352Z,0.40
2023-02-11T21:55:51.303Z,0.38
2023-02-11T22:00:52.931Z,1.83
2023-02-11T22:05:54.723Z,0.63
2023-02-11T22:11:05.653Z,0.30
2023-02-11T22:16:10.618Z,0.20
2023-02-11T22:21:15.399Z,1.02
2023-02-11T22:26:19.250Z,0.80
2023-02-11T22:31:24.199Z,0.52
2023-02-11T22:36:31.264Z,0.55
2023-02-11T22:41:33.743Z,0.50
2023-02-11T22:46:35.777Z,0.70
2023-02-11T22:51:38.962Z,1.13
2023-02-11T22:56:40.756Z,0.63
2023-02-11T23:01:42.422Z,1.13
2023-02-11T23:06:43.996Z,0.55
2023-02-11T23:11:46.877Z,1.45
2023-02-11T23:16:50.718Z,1.08
2023-02-11T23:21:53.085Z,0.90
2023-02-11T23:26:54.664Z,0.50
2023-02-11T23:31:58.733Z,0.80
2023-02-11T23:37:00.801Z,0.32
2023-02-11T23:42:02.391Z,0.98
2023-02-11T23:47:04.276Z,0.60
2023-02-11T23:52:05.876Z,0.75
2023-02-11T23:57:07.470Z,0.63
